Time;durP1;ratioP1;P1;durP2;ratioP2;P2;SDS_P1;SDS_P2;PMS_P1;PMS_P2;Temp;Humidity;BMP_temperature;BMP_pressure;BME280_temperature;BME280_humidity;BME280_pressure;Samples;Min_cycle;Max_cycle;Signal;HPM_P1;HPM_P2
2023/08/30 00:01:35;;;;;;;5.50;3.30;;;14.30;99.90;;;;;;4958763;28;20239;-65
2023/08/30 00:04:01;;;;;;;3.97;3.55;;;14.40;99.90;;;;;;4935408;28;20239;-65
2023/08/30 00:06:28;;;;;;;3.60;3.30;;;14.30;99.90;;;;;;4923394;28;21114;-65
2023/08/30 00:08:56;;;;;;;5.45;3.90;;;14.30;99.90;;;;;;4965823;28;20223;-65
2023/08/30 00:11:23;;;;;;;5.20;3.78;;;14.40;99.90;;;;;;4982520;28;20211;-65
2023/08/30 00:13:51;;;;;;;4.50;3.13;;;14.30;99.90;;;;;;4979829;28;20217;-65
2023/08/30 00:16:18;;;;;;;6.00;3.63;;;14.50;99.90;;;;;;4984274;28;20203;-65
2023/08/30 00:18:45;;;;;;;4.22;3.30;;;14.30;99.90;;;;;;4985755;28;20205;-65
2023/08/30 00:21:12;;;;;;;6.15;3.75;;;14.40;99.90;;;;;;4957820;28;20230;-65
2023/08/30 00:23:38;;;;;;;4.95;3.88;;;14.40;99.90;;;;;;4996595;28;20213;-65
2023/08/30 00:26:05;;;;;;;4.00;3.55;;;14.40;99.90;;;;;;4982844;28;20210;-65
2023/08/30 00:28:32;;;;;;;4.20;3.35;;;;;;;;;;4983660;28;20222;-65
2023/08/30 00:31:01;;;;;;;4.78;3.58;;;14.40;99.90;;;;;;4986078;28;22507;-65
2023/08/30 00:33:28;;;;;;;3.78;3.35;;;14.40;99.90;;;;;;4992764;28;20293;-65
2023/08/30 00:35:58;;;;;;;3.88;3.42;;;14.50;99.90;;;;;;4973468;28;20198;-66
2023/08/30 00:38:26;;;;;;;4.03;3.20;;;14.40;99.90;;;;;;4962966;28;20206;-65
2023/08/30 00:40:53;;;;;;;3.92;3.42;;;13.40;99.90;;;;;;4986932;28;20222;-65
2023/08/30 00:43:20;;;;;;;6.40;3.70;;;14.30;99.90;;;;;;4982928;28;20233;-65
2023/08/30 00:45:48;;;;;;;3.95;3.55;;;14.40;99.90;;;;;;4991760;28;20206;-65
2023/08/30 00:48:16;;;;;;;5.05;3.85;;;14.30;99.90;;;;;;5001642;28;20198;-65
2023/08/30 00:50:43;;;;;;;3.80;3.30;;;14.50;99.90;;;;;;4992817;28;20616;-65
2023/08/30 00:53:12;;;;;;;5.80;3.47;;;14.40;99.90;;;;;;4968413;28;20205;-65
2023/08/30 00:55:39;;;;;;;3.95;3.55;;;14.40;99.90;;;;;;5004453;28;20217;-66
2023/08/30 00:58:07;;;;;;;5.75;3.67;;;14.70;99.90;;;;;;4986201;28;20504;-66
2023/08/30 01:00:34;;;;;;;5.53;3.35;;;14.30;99.90;;;;;;5000896;28;20222;-65
2023/08/30 01:03:01;;;;;;;7.05;4.57;;;14.30;99.90;;;;;;4990725;28;20210;-65
2023/08/30 01:05:29;;;;;;;5.60;4.13;;;14.30;99.90;;;;;;5007550;28;20209;-65
2023/08/30 01:07:56;;;;;;;7.60;3.95;;;14.30;99.90;;;;;;4962221;28;20228;-66
2023/08/30 01:10:28;;;;;;;7.75;3.90;;;14.30;99.90;;;;;;4999060;28;20222;-65
2023/08/30 01:13:04;;;;;;;9.02;3.97;;;15.10;99.90;;;;;;4988199;28;20205;-65
2023/08/30 01:15:32;;;;;;;4.00;3.58;;;14.30;99.90;;;;;;4992917;28;20243;-65
2023/08/30 01:18:00;;;;;;;6.80;4.20;;;14.30;99.90;;;;;;4986559;28;20213;-65
2023/08/30 01:20:29;;;;;;;6.88;4.03;;;14.30;99.90;;;;;;4984485;28;20226;-65
2023/08/30 01:23:03;;;;;;;10.20;4.38;;;14.20;99.90;;;;;;4978896;28;20212;-65
2023/08/30 01:25:39;;;;;;;4.88;3.90;;;14.20;99.90;;;;;;4954496;28;20222;-65
2023/08/30 01:28:08;;;;;;;5.13;4.20;;;14.40;99.90;;;;;;4980706;28;20202;-65
2023/08/30 01:30:37;;;;;;;7.55;4.40;;;14.30;99.90;;;;;;4996320;28;20209;-65
2023/08/30 01:33:05;;;;;;;7.30;4.60;;;14.30;99.90;;;;;;4986052;28;20218;-65
2023/08/30 01:35:35;;;;;;;6.57;3.95;;;14.40;99.90;;;;;;4995601;28;20205;-65
2023/08/30 01:38:04;;;;;;;4.22;3.83;;;14.40;99.90;;;;;;4987309;28;20194;-65
2023/08/30 01:40:36;;;;;;;10.15;4.00;;;14.40;99.90;;;;;;4964132;28;20213;-65
2023/08/30 01:43:04;;;;;;;5.47;4.03;;;14.20;99.90;;;;;;4978995;28;20679;-65
2023/08/30 01:45:34;;;;;;;3.95;3.65;;;14.40;99.90;;;;;;5001997;28;20289;-65
2023/08/30 01:48:00;;;;;;;7.40;4.55;;;14.30;99.90;;;;;;4985511;28;20214;-65
2023/08/30 01:50:28;;;;;;;4.72;4.30;;;14.40;99.90;;;;;;4996768;28;20213;-68
2023/08/30 01:52:56;;;;;;;4.38;3.92;;;12.40;99.90;;;;;;4986356;28;20334;-65
2023/08/30 01:55:25;;;;;;;10.27;3.90;;;14.30;99.90;;;;;;4960239;28;20233;-65
2023/08/30 01:57:52;;;;;;;5.18;4.68;;;14.30;99.90;;;;;;4976971;28;20209;-66
2023/08/30 02:00:19;;;;;;;7.00;4.10;;;14.40;99.90;;;;;;4994543;28;20280;-65
2023/08/30 02:02:48;;;;;;;5.00;4.15;;;14.40;99.90;;;;;;4986874;28;20206;-65
2023/08/30 02:05:15;;;;;;;5.45;4.13;;;14.40;99.90;;;;;;4994536;28;20205;-65
2023/08/30 02:07:52;;;;;;;4.25;3.85;;;14.50;99.90;;;;;;4991156;28;20214;-66
2023/08/30 02:10:24;;;;;;;7.00;4.45;;;14.40;99.90;;;;;;4946870;28;21293;-65
2023/08/30 02:12:55;;;;;;;6.50;4.28;;;14.40;99.90;;;;;;4989921;28;20206;-65
2023/08/30 02:15:24;;;;;;;4.38;3.97;;;14.40;99.90;;;;;;4982559;28;20226;-65
2023/08/30 02:17:52;;;;;;;6.25;4.38;;;14.40;99.90;;;;;;4987696;28;20202;-65
2023/08/30 02:20:20;;;;;;;12.25;5.15;;;14.40;99.90;;;;;;4992040;28;20285;-65
2023/08/30 02:22:46;;;;;;;4.78;4.15;;;14.80;99.90;;;;;;4986518;28;20230;-65
2023/08/30 02:25:13;;;;;;;4.55;4.15;;;14.40;99.90;;;;;;4946533;28;21313;-65
2023/08/30 02:27:40;;;;;;;6.47;3.60;;;14.30;99.90;;;;;;4994135;28;20207;-65
2023/08/30 02:30:08;;;;;;;5.00;3.90;;;14.40;99.90;;;;;;4981076;28;20221;-65
2023/08/30 02:32:34;;;;;;;6.50;4.40;;;14.30;99.90;;;;;;4994847;28;20198;-65
2023/08/30 02:35:03;;;;;;;5.55;4.10;;;14.30;99.90;;;;;;4978358;28;20212;-66
2023/08/30 02:37:30;;;;;;;8.50;4.20;;;14.30;99.90;;;;;;4990123;28;20268;-65
2023/08/30 02:39:57;;;;;;;5.15;4.10;;;14.40;99.90;;;;;;4970385;28;20771;-65
2023/08/30 02:42:24;;;;;;;9.98;4.30;;;14.30;99.90;;;;;;4956077;28;20231;-65
2023/08/30 02:44:51;;;;;;;7.55;4.65;;;14.40;99.90;;;;;;4985286;28;20213;-65
2023/08/30 02:47:18;;;;;;;4.97;4.20;;;14.30;99.90;;;;;;5004100;28;20679;-65
2023/08/30 02:49:45;;;;;;;6.85;3.97;;;14.30;99.90;;;;;;4988017;28;20202;-65
2023/08/30 02:52:13;;;;;;;4.85;3.92;;;14.60;99.90;;;;;;5002255;28;20205;-65
2023/08/30 02:54:40;;;;;;;5.00;4.30;;;14.30;99.90;;;;;;4988288;28;20297;-65
2023/08/30 02:57:07;;;;;;;6.32;4.38;;;14.30;99.90;;;;;;4965738;28;20224;-65
2023/08/30 02:59:33;;;;;;;4.78;4.15;;;14.30;99.90;;;;;;4999762;28;20209;-65
2023/08/30 03:02:00;;;;;;;6.07;4.22;;;14.20;99.90;;;;;;4978772;28;20233;-65
2023/08/30 03:04:28;;;;;;;4.38;3.97;;;14.20;99.90;;;;;;4992340;28;20212;-65
2023/08/30 03:06:55;;;;;;;5.43;4.43;;;14.20;99.90;;;;;;4992145;28;20199;-65
2023/08/30 03:09:23;;;;;;;6.28;4.60;;;14.30;99.90;;;;;;5000920;28;20234;-65
2023/08/30 03:11:50;;;;;;;8.15;4.57;;;14.20;99.90;;;;;;4954011;28;20216;-65
2023/08/30 03:14:17;;;;;;;5.78;4.68;;;14.20;99.90;;;;;;5002578;28;20451;-65
2023/08/30 03:16:46;;;;;;;4.60;4.13;;;14.10;99.90;;;;;;4983524;28;20221;-65
2023/08/30 03:19:13;;;;;;;5.32;4.78;;;14.10;99.90;;;;;;4986850;28;20313;-65
2023/08/30 03:21:40;;;;;;;7.22;4.78;;;14.20;99.90;;;;;;4982802;28;20226;-65
2023/08/30 03:24:07;;;;;;;5.68;4.90;;;14.10;99.90;;;;;;4978488;28;20294;-65
2023/08/30 03:26:35;;;;;;;9.32;5.15;;;14.20;99.90;;;;;;4942880;28;20206;-65
2023/08/30 03:29:02;;;;;;;6.70;5.22;;;14.20;99.90;;;;;;4988760;28;22043;-65
2023/08/30 03:31:29;;;;;;;6.75;5.03;;;14.10;99.90;;;;;;4981426;28;20897;-65
2023/08/30 03:33:56;;;;;;;7.38;5.53;;;14.20;99.90;;;;;;4987536;28;20220;-65
2023/08/30 03:36:23;;;;;;;6.93;5.07;;;14.10;99.90;;;;;;4983931;28;20288;-65
2023/08/30 03:38:50;;;;;;;6.22;5.55;;;14.10;99.90;;;;;;4980117;28;20305;-65
2023/08/30 03:41:17;;;;;;;7.18;5.85;;;14.10;99.90;;;;;;4980650;28;20233;-65
2023/08/30 03:43:45;;;;;;;7.25;6.35;;;14.10;99.90;;;;;;4961794;28;20809;-65
2023/08/30 03:46:12;;;;;;;6.57;5.70;;;14.20;99.90;;;;;;4976871;28;20571;-65
2023/08/30 03:48:39;;;;;;;7.07;5.72;;;14.10;99.90;;;;;;4996594;28;20218;-65
2023/08/30 03:51:06;;;;;;;10.35;6.15;;;14.00;99.90;;;;;;4972221;28;20222;-65
2023/08/30 03:53:32;;;;;;;11.38;6.65;;;14.10;99.90;;;;;;4998372;28;20880;-65
2023/08/30 03:56:00;;;;;;;9.02;7.00;;;14.20;99.90;;;;;;4994465;28;20220;-66
2023/08/30 03:58:27;;;;;;;7.07;6.03;;;14.10;99.90;;;;;;4953335;28;20206;-65
2023/08/30 04:00:55;;;;;;;7.95;7.03;;;14.10;99.90;;;;;;4989161;28;20244;-65
2023/08/30 04:03:22;;;;;;;7.05;6.18;;;14.10;99.90;;;;;;4971458;28;20234;-65
2023/08/30 04:05:49;;;;;;;7.50;6.22;;;14.10;99.90;;;;;;4980663;28;20201;-65
2023/08/30 04:08:15;;;;;;;7.53;6.25;;;14.00;99.90;;;;;;4981107;28;20226;-65
2023/08/30 04:10:43;;;;;;;9.00;7.20;;;14.10;99.90;;;;;;4988597;28;20204;-65
2023/08/30 04:13:10;;;;;;;9.52;6.80;;;14.00;99.90;;;;;;4982850;28;20222;-65
2023/08/30 04:15:38;;;;;;;7.10;6.40;;;14.10;99.90;;;;;;4952960;28;20210;-65
2023/08/30 04:18:07;;;;;;;7.85;6.70;;;14.00;99.90;;;;;;4983830;28;20320;-65
2023/08/30 04:20:35;;;;;;;8.55;6.28;;;14.00;99.90;;;;;;4995122;28;20290;-65
2023/08/30 04:23:02;;;;;;;7.68;6.85;;;14.00;99.90;;;;;;4989482;28;20715;-65
2023/08/30 04:25:29;;;;;;;7.88;6.57;;;14.00;99.90;;;;;;5001081;28;20344;-65
2023/08/30 04:27:56;;;;;;;8.00;6.93;;;13.90;99.90;;;;;;4981255;28;20222;-65
2023/08/30 04:30:23;;;;;;;8.07;6.22;;;13.80;99.90;;;;;;4957560;28;20221;-65
2023/08/30 04:32:50;;;;;;;17.98;6.00;;;13.60;99.90;;;;;;4997051;28;20206;-65
2023/08/30 04:35:18;;;;;;;7.95;5.63;;;13.60;99.90;;;;;;5003540;28;20226;-65
2023/08/30 04:37:45;;;;;;;5.97;5.38;;;13.60;99.90;;;;;;4983024;28;20260;-65
2023/08/30 04:40:12;;;;;;;7.15;6.22;;;13.50;99.90;;;;;;4976666;28;20232;-65
2023/08/30 04:42:40;;;;;;;9.15;5.82;;;13.60;99.90;;;;;;4993984;28;20248;-65
2023/08/30 04:45:09;;;;;;;8.60;6.88;;;13.50;99.90;;;;;;4965896;28;20216;-65
2023/08/30 04:47:36;;;;;;;7.88;6.13;;;13.50;99.90;;;;;;4977047;28;20252;-65
2023/08/30 04:50:03;;;;;;;8.13;6.18;;;13.60;99.90;;;;;;4998227;28;20202;-65
2023/08/30 04:52:32;;;;;;;7.68;6.00;;;13.70;99.90;;;;;;5000339;28;20209;-65
2023/08/30 04:54:59;;;;;;;7.35;5.97;;;12.70;99.90;;;;;;4989455;28;20198;-65
2023/08/30 04:57:26;;;;;;;7.53;6.00;;;13.60;99.90;;;;;;4999385;28;20667;-65
2023/08/30 04:59:53;;;;;;;10.77;6.60;;;13.60;99.90;;;;;;4988693;28;20212;-65
2023/08/30 05:02:20;;;;;;;9.15;6.45;;;13.60;99.90;;;;;;4940657;28;20250;-65
2023/08/30 05:04:47;;;;;;;8.18;6.15;;;13.40;99.90;;;;;;4975661;28;20231;-65
2023/08/30 05:07:13;;;;;;;7.88;6.35;;;13.50;99.90;;;;;;4991967;28;20229;-65
2023/08/30 05:09:42;;;;;;;7.60;6.07;;;13.50;99.90;;;;;;4987662;28;20234;-65
2023/08/30 05:12:09;;;;;;;8.15;6.82;;;13.60;99.90;;;;;;5000184;28;20241;-65
2023/08/30 05:14:36;;;;;;;10.70;6.50;;;13.50;99.90;;;;;;4980034;28;20344;-65
2023/08/30 05:17:03;;;;;;;9.90;7.20;;;13.50;99.90;;;;;;4957967;28;20218;-65
2023/08/30 05:19:30;;;;;;;6.60;5.95;;;13.60;99.90;;;;;;4985045;28;20236;-65
2023/08/30 05:21:57;;;;;;;7.88;7.05;;;13.60;99.90;;;;;;4986478;28;20477;-65
2023/08/30 05:24:24;;;;;;;9.45;6.90;;;13.70;99.90;;;;;;4985371;28;20229;-65
2023/08/30 05:26:52;;;;;;;7.95;6.60;;;13.60;99.90;;;;;;4998653;28;20213;-66
2023/08/30 05:29:18;;;;;;;6.70;6.00;;;13.60;99.90;;;;;;5004428;28;20222;-65
2023/08/30 05:31:45;;;;;;;8.90;6.82;;;13.60;99.90;;;;;;4938157;28;20868;-65
2023/08/30 05:34:12;;;;;;;8.20;6.18;;;13.60;99.90;;;;;;4991411;28;20202;-65
2023/08/30 05:36:39;;;;;;;7.68;6.88;;;13.40;99.90;;;;;;4976467;28;20226;-65
2023/08/30 05:39:06;;;;;;;7.22;6.07;;;13.60;99.90;;;;;;4999575;28;20802;-66
2023/08/30 05:41:33;;;;;;;7.50;6.57;;;13.60;99.90;;;;;;4993576;28;20206;-65
2023/08/30 05:44:02;;;;;;;9.15;7.00;;;13.60;99.90;;;;;;4997536;28;20861;-65
2023/08/30 05:46:29;;;;;;;8.48;7.25;;;;;;;;;;4960812;28;20708;-66
2023/08/30 05:48:56;;;;;;;10.05;6.80;;;13.60;99.90;;;;;;4981398;28;20830;-65
2023/08/30 05:51:23;;;;;;;10.05;6.82;;;13.60;99.90;;;;;;4974600;28;20232;-65
2023/08/30 05:53:50;;;;;;;8.10;6.80;;;13.60;99.90;;;;;;4994688;28;20216;-65
2023/08/30 05:56:17;;;;;;;9.35;6.55;;;13.60;99.90;;;;;;4996786;28;20194;-65
2023/08/30 05:58:44;;;;;;;10.07;6.78;;;13.60;99.90;;;;;;5000275;28;20702;-65
2023/08/30 06:01:12;;;;;;;9.38;6.78;;;13.60;99.90;;;;;;4991156;28;20226;-65
2023/08/30 06:03:39;;;;;;;9.57;7.47;;;13.70;99.90;;;;;;4974812;28;21537;-65
2023/08/30 06:06:06;;;;;;;7.50;6.75;;;13.60;99.90;;;;;;4992938;28;20205;-65
2023/08/30 06:08:33;;;;;;;7.00;6.30;;;13.80;99.90;;;;;;4992827;28;20225;-65
2023/08/30 06:11:00;;;;;;;7.65;6.82;;;13.70;99.90;;;;;;5000092;28;20772;-65
2023/08/30 06:13:26;;;;;;;8.35;7.30;;;13.80;99.90;;;;;;4997117;28;20213;-65
2023/08/30 06:15:53;;;;;;;8.32;7.15;;;13.80;99.90;;;;;;4980018;28;20225;-65
2023/08/30 06:18:22;;;;;;;12.13;7.82;;;13.80;99.90;;;;;;4940305;28;20227;-65
2023/08/30 06:20:49;;;;;;;9.65;7.25;;;13.90;99.90;;;;;;4962750;28;20218;-66
2023/08/30 06:23:19;;;;;;;11.07;7.32;;;13.80;99.90;;;;;;4964933;28;21257;-66
2023/08/30 06:25:45;;;;;;;11.10;7.88;;;13.80;99.90;;;;;;4994130;28;20221;-65
2023/08/30 06:28:12;;;;;;;12.27;8.15;;;13.90;99.90;;;;;;4992571;28;20202;-65
2023/08/30 06:30:39;;;;;;;14.52;8.30;;;14.00;99.90;;;;;;4996841;28;20224;-65
2023/08/30 06:33:06;;;;;;;8.18;6.82;;;14.00;99.90;;;;;;4943476;28;20806;-65
2023/08/30 06:35:38;;;;;;;10.60;7.20;;;14.10;99.90;;;;;;4987647;28;20230;-70
2023/08/30 06:38:05;;;;;;;11.63;7.82;;;14.20;99.90;;;;;;5001562;28;20305;-65
2023/08/30 06:40:32;;;;;;;10.35;8.32;;;14.10;99.90;;;;;;5007162;28;20216;-65
2023/08/30 06:42:59;;;;;;;10.82;7.63;;;14.10;99.90;;;;;;5000094;28;20724;-65
2023/08/30 06:45:26;;;;;;;9.10;7.90;;;14.30;99.90;;;;;;5004279;28;20209;-65
2023/08/30 06:47:53;;;;;;;8.57;7.68;;;14.20;99.90;;;;;;4973393;28;20207;-66
2023/08/30 06:50:20;;;;;;;9.32;7.88;;;14.30;99.90;;;;;;5000033;28;20209;-66
2023/08/30 06:52:48;;;;;;;9.90;7.55;;;14.30;99.90;;;;;;4999877;28;20926;-66
2023/08/30 06:55:15;;;;;;;9.73;7.40;;;14.30;99.90;;;;;;5003131;28;20233;-65
2023/08/30 06:57:42;;;;;;;8.20;7.30;;;14.40;99.90;;;;;;5004276;28;20222;-65
2023/08/30 07:00:10;;;;;;;8.65;6.90;;;14.40;99.90;;;;;;4998459;28;20503;-65
2023/08/30 07:02:39;;;;;;;10.57;8.45;;;14.40;99.90;;;;;;5004965;28;20578;-65
2023/08/30 07:05:06;;;;;;;8.20;7.15;;;14.50;99.90;;;;;;4961878;28;20214;-65
2023/08/30 07:07:33;;;;;;;13.10;7.95;;;14.50;99.90;;;;;;5002207;28;20206;-65
2023/08/30 07:10:02;;;;;;;14.70;7.88;;;14.60;99.90;;;;;;4998675;28;20553;-66
2023/08/30 07:12:29;;;;;;;10.43;8.70;;;14.50;99.90;;;;;;5006985;28;20324;-65
2023/08/30 07:14:56;;;;;;;13.15;8.55;;;14.50;99.90;;;;;;4996320;28;20233;-66
2023/08/30 07:17:23;;;;;;;10.95;8.20;;;14.60;99.90;;;;;;5002613;28;20203;-65
2023/08/30 07:19:50;;;;;;;9.90;7.90;;;14.60;99.90;;;;;;4983791;28;20202;-65
2023/08/30 07:22:17;;;;;;;11.43;7.47;;;14.70;99.90;;;;;;4996418;28;20195;-66
2023/08/30 07:24:44;;;;;;;11.43;7.07;;;14.80;99.90;;;;;;5004575;28;20201;-66
2023/08/30 07:27:12;;;;;;;12.25;8.10;;;14.70;99.90;;;;;;5005969;28;20688;-65
2023/08/30 07:29:40;;;;;;;10.30;7.13;;;14.80;99.90;;;;;;5002952;28;20389;-66
2023/08/30 07:32:08;;;;;;;9.20;7.47;;;14.90;99.90;;;;;;4995961;28;20390;-65
2023/08/30 07:34:34;;;;;;;12.82;7.63;;;14.90;99.90;;;;;;5007401;28;20202;-66
2023/08/30 07:37:02;;;;;;;10.25;7.82;;;14.90;99.90;;;;;;4968650;28;20598;-65
2023/08/30 07:39:29;;;;;;;12.10;7.95;;;14.90;99.90;;;;;;5006152;28;20203;-66
2023/08/30 07:41:55;;;;;;;11.57;8.13;;;15.00;99.90;;;;;;5003742;28;20440;-66
2023/08/30 07:44:24;;;;;;;12.40;8.25;;;15.10;99.90;;;;;;5007092;28;20234;-66
2023/08/30 07:46:50;;;;;;;8.00;7.20;;;14.00;99.90;;;;;;5004281;28;20198;-65
2023/08/30 07:49:17;;;;;;;13.43;8.35;;;15.00;99.90;;;;;;5004948;28;20198;-66
2023/08/30 07:51:45;;;;;;;10.10;7.85;;;14.80;99.90;;;;;;4982358;28;20205;-66
2023/08/30 07:54:12;;;;;;;8.52;7.63;;;15.20;99.90;;;;;;4997448;28;20205;-66
2023/08/30 07:56:39;;;;;;;12.88;7.72;;;;;;;;;;5008615;28;20204;-65
2023/08/30 07:59:06;;;;;;;11.20;7.45;;;15.10;99.90;;;;;;5004345;28;20230;-65
2023/08/30 08:01:34;;;;;;;8.50;6.80;;;15.20;99.90;;;;;;5007085;28;20660;-66
2023/08/30 08:04:01;;;;;;;8.13;7.07;;;15.20;99.90;;;;;;5000710;28;21135;-66
2023/08/30 08:06:27;;;;;;;10.40;7.68;;;15.20;99.90;;;;;;5005470;28;20209;-66
2023/08/30 08:08:54;;;;;;;8.57;7.25;;;15.30;99.90;;;;;;4964531;28;20746;-65
2023/08/30 08:11:21;;;;;;;8.88;6.75;;;15.20;99.90;;;;;;5009580;28;20699;-65
2023/08/30 08:13:48;;;;;;;8.15;6.88;;;15.30;99.90;;;;;;5004608;28;20285;-65
2023/08/30 08:16:14;;;;;;;9.75;7.25;;;15.30;99.90;;;;;;5006452;28;20194;-65
2023/08/30 08:18:43;;;;;;;7.18;6.47;;;15.40;99.90;;;;;;5005024;28;20650;-65
2023/08/30 08:21:10;;;;;;;8.40;6.60;;;15.40;99.90;;;;;;5003998;28;20293;-65
2023/08/30 08:23:36;;;;;;;8.48;6.90;;;15.50;99.90;;;;;;4972667;28;20254;-65
2023/08/30 08:26:03;;;;;;;12.20;6.90;;;15.50;99.90;;;;;;5004296;28;20216;-65
2023/08/30 08:28:30;;;;;;;12.90;7.25;;;15.50;99.90;;;;;;5003537;28;20202;-66
2023/08/30 08:30:57;;;;;;;8.38;6.30;;;15.50;99.90;;;;;;5001967;28;20393;-66
2023/08/30 08:33:24;;;;;;;7.05;6.00;;;15.50;99.90;;;;;;5008494;28;20202;-65
2023/08/30 08:35:52;;;;;;;9.60;6.15;;;15.60;99.90;;;;;;5004532;28;20293;-65
2023/08/30 08:38:19;;;;;;;10.95;5.78;;;15.60;99.90;;;;;;4967806;28;20645;-66
2023/08/30 08:40:45;;;;;;;7.93;6.10;;;15.60;99.90;;;;;;5004316;28;20439;-65
2023/08/30 08:43:13;;;;;;;8.85;6.07;;;15.70;99.90;;;;;;5002489;28;20230;-65
2023/08/30 08:45:40;;;;;;;8.48;6.07;;;15.70;99.90;;;;;;5003943;28;20194;-66
2023/08/30 08:48:07;;;;;;;6.95;5.40;;;15.80;99.90;;;;;;5000711;28;20208;-65
2023/08/30 08:50:34;;;;;;;6.78;6.07;;;15.80;99.90;;;;;;5005096;28;20201;-66
2023/08/30 08:53:04;;;;;;;8.70;6.10;;;15.90;99.90;;;;;;4966205;28;20939;-66
2023/08/30 08:55:31;;;;;;;6.43;5.40;;;15.90;99.90;;;;;;5006847;28;20214;-65
2023/08/30 08:57:59;;;;;;;7.45;6.03;;;15.90;99.90;;;;;;4997978;28;20711;-65
2023/08/30 09:00:26;;;;;;;9.45;5.95;;;16.00;99.90;;;;;;5002767;28;20202;-66
2023/08/30 09:02:55;;;;;;;9.80;6.18;;;16.10;99.90;;;;;;5001793;28;20225;-66
2023/08/30 09:05:22;;;;;;;10.85;6.05;;;16.10;99.90;;;;;;5003942;28;20668;-65
2023/08/30 09:07:53;;;;;;;8.55;5.60;;;16.10;99.90;;;;;;5004001;28;20205;-65
2023/08/30 09:10:21;;;;;;;11.43;6.60;;;16.20;99.90;;;;;;4971388;28;20211;-65
2023/08/30 09:12:48;;;;;;;7.32;5.78;;;16.30;99.90;;;;;;5001661;28;20199;-65
2023/08/30 09:15:16;;;;;;;7.03;5.40;;;16.30;99.90;;;;;;5000133;28;20194;-65
2023/08/30 09:17:43;;;;;;;12.10;6.20;;;16.40;99.90;;;;;;5003641;28;20199;-66
2023/08/30 09:20:11;;;;;;;7.03;5.80;;;16.50;99.90;;;;;;4987245;28;20229;-65
2023/08/30 09:22:39;;;;;;;7.05;5.70;;;16.60;99.90;;;;;;5000783;28;20709;-66
2023/08/30 09:25:09;;;;;;;11.60;5.70;;;16.60;99.90;;;;;;4970846;28;20915;-66
2023/08/30 09:27:41;;;;;;;7.65;5.85;;;16.70;99.90;;;;;;5004195;28;20877;-65
2023/08/30 09:30:10;;;;;;;8.18;5.80;;;16.70;99.90;;;;;;5001576;28;20201;-66
2023/08/30 09:32:41;;;;;;;7.63;6.20;;;16.80;99.90;;;;;;5001855;28;20203;-65
2023/08/30 09:35:09;;;;;;;8.63;6.07;;;16.80;99.90;;;;;;5004630;28;20343;-65
2023/08/30 09:37:36;;;;;;;8.50;6.13;;;16.90;99.90;;;;;;5005160;28;20198;-65
2023/08/30 09:40:03;;;;;;;8.75;6.45;;;16.90;99.90;;;;;;4999220;28;20817;-65
2023/08/30 09:42:29;;;;;;;13.25;6.43;;;16.90;99.90;;;;;;4972026;28;20234;-65
2023/08/30 09:44:58;;;;;;;8.57;7.40;;;16.90;99.90;;;;;;5003038;28;20410;-66
2023/08/30 09:47:27;;;;;;;7.93;5.93;;;16.90;99.90;;;;;;5006703;28;20199;-65
2023/08/30 09:49:56;;;;;;;11.48;6.32;;;16.90;99.90;;;;;;5002217;28;20417;-66
2023/08/30 09:52:25;;;;;;;9.70;5.97;;;17.00;99.90;;;;;;5005338;28;20605;-65
2023/08/30 09:54:53;;;;;;;11.68;6.22;;;17.00;99.90;;;;;;5000148;28;20199;-65
2023/08/30 09:57:22;;;;;;;9.15;5.90;;;17.00;99.90;;;;;;4975898;28;20778;-66
2023/08/30 09:59:50;;;;;;;9.23;6.18;;;17.00;99.90;;;;;;5001554;28;20194;-65
2023/08/30 10:02:19;;;;;;;6.95;5.43;;;17.10;99.90;;;;;;5003838;28;20284;-65
2023/08/30 10:04:47;;;;;;;8.35;6.03;;;17.20;99.90;;;;;;4998389;28;20321;-65
2023/08/30 10:07:14;;;;;;;8.88;5.97;;;17.10;99.90;;;;;;5002340;28;20206;-65
2023/08/30 10:09:42;;;;;;;8.77;5.55;;;17.30;99.90;;;;;;5001316;28;20252;-65
2023/08/30 10:12:11;;;;;;;9.35;5.63;;;17.30;99.90;;;;;;4970736;28;20646;-65
2023/08/30 10:14:38;;;;;;;8.95;5.25;;;17.40;99.90;;;;;;5002024;28;20206;-65
2023/08/30 10:17:08;;;;;;;6.95;5.22;;;17.40;99.90;;;;;;4999535;28;20392;-66
2023/08/30 10:19:38;;;;;;;6.97;5.03;;;17.50;99.90;;;;;;5005354;28;21105;-65
2023/08/30 10:22:08;;;;;;;5.30;4.30;;;17.40;99.90;;;;;;4996967;28;20203;-66
2023/08/30 10:24:41;;;;;;;6.45;4.63;;;17.50;99.90;;;;;;5004303;28;20232;-65
2023/08/30 10:27:11;;;;;;;9.18;4.65;;;17.50;99.90;;;;;;4974633;28;20901;-65
2023/08/30 10:29:40;;;;;;;7.82;5.00;;;17.50;99.90;;;;;;5005295;28;20677;-65
2023/08/30 10:32:08;;;;;;;8.45;5.18;;;17.60;99.90;;;;;;5000135;28;20794;-66
2023/08/30 10:34:37;;;;;;;8.23;5.20;;;17.60;99.90;;;;;;5005485;28;20224;-65
2023/08/30 10:37:07;;;;;;;11.82;4.80;;;17.60;99.90;;;;;;4999592;28;20199;-65
2023/08/30 10:39:36;;;;;;;8.45;5.15;;;17.60;99.90;;;;;;5005838;28;20228;-65
2023/08/30 10:42:09;;;;;;;8.30;5.15;;;17.70;99.90;;;;;;4971389;28;20728;-66
2023/08/30 10:44:47;;;;;;;7.90;4.30;;;17.60;99.90;;;;;;5001212;28;20761;-65
2023/08/30 10:47:19;;;;;;;7.30;4.28;;;17.70;99.90;;;;;;5001202;28;20202;-65
2023/08/30 10:49:49;;;;;;;10.82;4.38;;;17.70;99.90;;;;;;5001480;28;20711;-65
2023/08/30 10:52:16;;;;;;;7.57;4.97;;;17.90;99.90;;;;;;5002082;28;20337;-65
2023/08/30 10:54:43;;;;;;;10.13;4.95;;;17.70;99.90;;;;;;5001474;28;20549;-65
2023/08/30 10:57:14;;;;;;;6.72;4.35;;;17.70;99.90;;;;;;4968281;28;20402;-65
2023/08/30 10:59:48;;;;;;;6.32;3.92;;;17.70;99.90;;;;;;4999559;28;20191;-65
2023/08/30 11:02:16;;;;;;;8.05;4.97;;;17.70;99.90;;;;;;4998537;28;20206;-65
2023/08/30 11:04:43;;;;;;;7.63;5.05;;;17.70;99.90;;;;;;5001564;28;20225;-65
2023/08/30 11:07:12;;;;;;;7.90;5.30;;;17.60;99.90;;;;;;5004051;28;20381;-65
2023/08/30 11:09:41;;;;;;;7.40;5.18;;;17.60;99.90;;;;;;4995173;28;20595;-65
2023/08/30 11:12:08;;;;;;;14.25;6.22;;;17.60;99.90;;;;;;4999276;28;20409;-65
2023/08/30 11:14:34;;;;;;;9.43;5.85;;;17.50;99.90;;;;;;4970415;28;20217;-65
2023/08/30 11:17:01;;;;;;;15.73;6.63;;;17.50;99.90;;;;;;5000897;28;20202;-65
2023/08/30 11:19:31;;;;;;;10.10;5.95;;;17.50;99.90;;;;;;4999278;28;20206;-65
2023/08/30 11:21:58;;;;;;;12.73;6.60;;;17.60;99.90;;;;;;5004041;28;20495;-65
2023/08/30 11:24:26;;;;;;;9.43;6.55;;;17.60;99.90;;;;;;5002035;28;20236;-66
2023/08/30 11:26:56;;;;;;;8.57;6.25;;;17.60;99.90;;;;;;5000662;28;20294;-65
2023/08/30 11:29:23;;;;;;;10.43;6.25;;;17.60;99.90;;;;;;4971477;28;20223;-65
2023/08/30 11:31:50;;;;;;;12.02;6.57;;;17.60;99.90;;;;;;4999022;28;20201;-66
2023/08/30 11:34:22;;;;;;;7.10;5.90;;;17.50;99.90;;;;;;4998355;28;20210;-66
2023/08/30 11:36:51;;;;;;;10.55;6.32;;;17.40;99.90;;;;;;4999511;28;20195;-65
2023/08/30 11:39:18;;;;;;;12.18;6.57;;;17.50;99.90;;;;;;5004378;28;20198;-65
2023/08/30 11:41:47;;;;;;;8.75;6.03;;;17.50;99.90;;;;;;4999981;28;20256;-65
2023/08/30 11:44:13;;;;;;;8.93;6.10;;;17.50;99.90;;;;;;4968005;28;20226;-65
2023/08/30 11:46:40;;;;;;;8.68;5.93;;;17.50;99.90;;;;;;5000002;28;20313;-66
2023/08/30 11:49:07;;;;;;;9.82;6.93;;;17.40;99.90;;;;;;5000677;28;20424;-65
2023/08/30 11:51:34;;;;;;;7.13;5.85;;;17.40;99.90;;;;;;5001608;28;20655;-65
2023/08/30 11:54:03;;;;;;;10.38;6.13;;;17.40;99.90;;;;;;4993892;28;20319;-65
2023/08/30 11:56:30;;;;;;;10.23;5.97;;;17.40;99.90;;;;;;5005561;28;20203;-65
2023/08/30 11:58:58;;;;;;;10.45;6.20;;;17.10;99.90;;;;;;4965622;28;20223;-65
2023/08/30 12:01:25;;;;;;;9.82;6.32;;;17.30;99.90;;;;;;4999278;28;20199;-65
2023/08/30 12:03:52;;;;;;;10.18;5.70;;;17.40;99.90;;;;;;4996927;28;20205;-65
2023/08/30 12:06:19;;;;;;;7.85;5.68;;;17.40;99.90;;;;;;5002956;28;20656;-65
2023/08/30 12:08:46;;;;;;;7.22;5.22;;;17.40;99.90;;;;;;4997092;28;20227;-65
2023/08/30 12:11:20;;;;;;;11.05;5.25;;;17.40;99.90;;;;;;5001908;28;20186;-65
2023/08/30 12:13:47;;;;;;;7.72;4.60;;;17.40;99.90;;;;;;4980647;28;20204;-65
2023/08/30 12:16:18;;;;;;;7.05;5.03;;;17.40;99.90;;;;;;5005416;28;20210;-65
2023/08/30 12:18:45;;;;;;;9.32;4.88;;;17.30;99.90;;;;;;5000076;28;20199;-65
2023/08/30 12:21:15;;;;;;;8.20;4.88;;;17.40;99.90;;;;;;5004262;28;20198;-65
2023/08/30 12:23:42;;;;;;;8.65;4.70;;;17.30;99.90;;;;;;5005378;28;20572;-65
2023/08/30 12:26:10;;;;;;;12.25;4.63;;;17.30;99.90;;;;;;5005313;28;20202;-65
2023/08/30 12:28:38;;;;;;;10.13;5.20;;;17.30;99.90;;;;;;5006706;28;20886;-65
2023/08/30 12:31:05;;;;;;;7.03;4.82;;;17.30;99.90;;;;;;4973935;28;20317;-65
2023/08/30 12:33:34;;;;;;;7.05;4.57;;;17.20;99.90;;;;;;5005009;28;20680;-65
2023/08/30 12:36:02;;;;;;;9.00;4.55;;;17.20;99.90;;;;;;5002766;28;20815;-65
2023/08/30 12:38:29;;;;;;;6.82;4.70;;;17.20;99.90;;;;;;5006725;28;20205;-65
2023/08/30 12:40:56;;;;;;;5.78;4.63;;;17.20;99.90;;;;;;5000300;28;20669;-65
2023/08/30 12:43:24;;;;;;;8.10;4.43;;;17.20;99.90;;;;;;5005645;28;20202;-65
2023/08/30 12:45:51;;;;;;;6.75;4.57;;;17.20;99.90;;;;;;4972812;28;20222;-65
2023/08/30 12:48:19;;;;;;;6.88;4.53;;;17.20;99.90;;;;;;5007389;28;20237;-65